createdAt,value
2017-10-17T00:00:29.059Z,1035.36
2017-10-17T00:01:29.048Z,1035.35
2017-10-17T00:02:29.049Z,1035.33
2017-10-17T00:03:29.043Z,1035.34
2017-10-17T00:04:29.036Z,1035.32
2017-10-17T00:05:29.025Z,1035.29
2017-10-17T00:06:29.018Z,1035.35
2017-10-17T00:07:29.017Z,1035.35
2017-10-17T00:08:29.012Z,1035.28
2017-10-17T00:09:29.005Z,1035.28
2017-10-17T00:10:28.996Z,1035.29
2017-10-17T00:11:28.995Z,1035.3
2017-10-17T00:12:28.983Z,1035.27
2017-10-17T00:13:28.981Z,1035.23
2017-10-17T00:14:28.972Z,1035.25
2017-10-17T00:15:28.972Z,1035.24
2017-10-17T00:16:28.960Z,1035.23
2017-10-17T00:17:28.960Z,1035.23
2017-10-17T00:18:28.949Z,1035.21
2017-10-17T00:19:28.941Z,1035.23
2017-10-17T00:20:28.936Z,1035.26
2017-10-17T00:21:28.935Z,1035.24
2017-10-17T00:22:28.929Z,1035.26
2017-10-17T00:23:28.918Z,1035.22
2017-10-17T00:24:28.914Z,1035.25
2017-10-17T00:25:28.913Z,1035.26
2017-10-17T00:26:28.900Z,1035.22
2017-10-17T00:27:28.899Z,1035.23
2017-10-17T00:28:28.888Z,1035.24
2017-10-17T00:29:28.889Z,1035.19
2017-10-17T00:30:28.878Z,1035.21
2017-10-17T00:31:28.877Z,1035.2
2017-10-17T00:32:28.867Z,1035.22
2017-10-17T00:33:28.865Z,1035.23
2017-10-17T00:34:28.853Z,1035.24
2017-10-17T00:35:28.849Z,1035.25
2017-10-17T00:36:28.842Z,1035.26
2017-10-17T00:37:28.839Z,1035.25
2017-10-17T00:38:28.838Z,1035.26
2017-10-17T00:39:28.826Z,1035.25
2017-10-17T00:40:28.820Z,1035.25
2017-10-17T00:41:28.812Z,1035.27
2017-10-17T00:42:28.810Z,1035.26
2017-10-17T00:43:28.800Z,1035.26
2017-10-17T00:44:28.801Z,1035.23
2017-10-17T00:45:28.790Z,1035.23
2017-10-17T00:46:28.790Z,1035.26
2017-10-17T00:47:28.779Z,1035.25
2017-10-17T00:48:28.776Z,1035.23
2017-10-17T00:49:28.767Z,1035.23
2017-10-17T00:50:28.765Z,1035.24
2017-10-17T00:51:28.754Z,1035.29
2017-10-17T00:52:28.747Z,1035.25
2017-10-17T00:53:28.746Z,1035.25
2017-10-17T00:54:28.744Z,1035.27
2017-10-17T00:55:28.733Z,1035.23
2017-10-17T00:56:28.725Z,1035.24
2017-10-17T00:57:28.719Z,1035.2
2017-10-17T00:58:28.717Z,1035.22
2017-10-17T00:59:28.706Z,1035.23
2017-10-17T01:00:28.704Z,1035.2
2017-10-17T01:01:28.696Z,1035.18
2017-10-17T01:02:28.696Z,1035.2
2017-10-17T01:03:28.686Z,1035.18
2017-10-17T01:04:28.681Z,1035.22
2017-10-17T01:05:28.671Z,1035.12
2017-10-17T01:06:28.672Z,1035.15
2017-10-17T01:07:28.665Z,1035.13
2017-10-17T01:08:28.660Z,1035.13
2017-10-17T01:09:28.654Z,1035.15
2017-10-17T01:10:28.642Z,1035.12
2017-10-17T01:11:28.640Z,1035.12
2017-10-17T01:12:28.635Z,1035.14
2017-10-17T01:13:28.629Z,1035.1
2017-10-17T01:14:28.622Z,1035.08
2017-10-17T01:15:28.618Z,1035.09
2017-10-17T01:16:28.613Z,1035.04
2017-10-17T01:17:28.603Z,1035.05
2017-10-17T01:18:28.601Z,1035.06
2017-10-17T01:19:28.591Z,1035.03
2017-10-17T01:20:28.589Z,1035.05
2017-10-17T01:21:28.579Z,1035.03
2017-10-17T01:22:28.579Z,1035.04
2017-10-17T01:23:28.574Z,1035.06
2017-10-17T01:24:28.567Z,1035.04
2017-10-17T01:25:28.561Z,1035.05
2017-10-17T01:26:28.549Z,1035.08
2017-10-17T01:27:28.563Z,1035.09
2017-10-17T01:28:28.547Z,1035.09
2017-10-17T01:29:28.537Z,1035.08
2017-10-17T01:30:28.525Z,1035.11
2017-10-17T01:31:28.524Z,1035.13
2017-10-17T01:32:28.515Z,1035.13
2017-10-17T01:33:28.511Z,1035.13
2017-10-17T01:34:28.503Z,1035.12
2017-10-17T01:35:28.502Z,1035.09
2017-10-17T01:36:28.491Z,1035.09
2017-10-17T01:37:28.489Z,1035.08
2017-10-17T01:38:28.478Z,1035.08
2017-10-17T01:39:28.471Z,1035.06
2017-10-17T01:40:28.466Z,1035.05
2017-10-17T01:41:28.465Z,1035.04
2017-10-17T01:42:28.456Z,1035.05
2017-10-17T01:43:28.453Z,1035.05
2017-10-17T01:44:28.448Z,1035.02
2017-10-17T01:45:28.442Z,1035.04
2017-10-17T01:46:28.431Z,1035.08
2017-10-17T01:47:28.430Z,1035.05
2017-10-17T01:48:28.418Z,1035.05
2017-10-17T01:49:28.416Z,1035.03
2017-10-17T01:50:28.406Z,1035.06
2017-10-17T01:51:28.406Z,1035.07
2017-10-17T01:52:28.395Z,1035.07
2017-10-17T01:53:28.394Z,1035.08
2017-10-17T01:54:28.382Z,1035.11
2017-10-17T01:55:28.378Z,1035.11
2017-10-17T01:56:28.372Z,1035.14
2017-10-17T01:57:28.370Z,1035.12
2017-10-17T01:58:28.362Z,1035.12
2017-10-17T01:59:28.353Z,1035.2
2017-10-17T02:00:28.345Z,1035.22
2017-10-17T02:01:28.339Z,1035.22
2017-10-17T02:02:28.339Z,1035.27
2017-10-17T02:03:28.327Z,1035.26
2017-10-17T02:04:28.328Z,1035.25
2017-10-17T02:05:28.316Z,1035.21
2017-10-17T02:06:28.313Z,1035.19
2017-10-17T02:07:28.303Z,1035.2
2017-10-17T02:08:28.304Z,1035.21
2017-10-17T02:09:28.295Z,1035.17
2017-10-17T02:10:28.286Z,1035.17
2017-10-17T02:11:28.280Z,1035.23
2017-10-17T02:12:28.272Z,1035.23
2017-10-17T02:13:28.272Z,1035.27
2017-10-17T02:14:28.264Z,1035.24
2017-10-17T02:15:28.254Z,1035.24
2017-10-17T02:16:28.246Z,1035.24
2017-10-17T02:17:28.240Z,1035.26
2017-10-17T02:18:28.242Z,1035.26
2017-10-17T02:19:28.231Z,1035.26
2017-10-17T02:20:28.222Z,1035.27
2017-10-17T02:21:28.222Z,1035.29
2017-10-17T02:22:28.211Z,1035.32
2017-10-17T02:23:28.208Z,1035.32
2017-10-17T02:24:28.197Z,1035.27
2017-10-17T02:25:28.196Z,1035.29
2017-10-17T02:26:28.185Z,1035.29
2017-10-17T02:27:28.178Z,1035.3
2017-10-17T02:28:28.172Z,1035.29
2017-10-17T02:29:28.175Z,1035.29
2017-10-17T02:30:28.165Z,1035.3
2017-10-17T02:31:28.161Z,1035.27
2017-10-17T02:32:28.148Z,1035.32
2017-10-17T02:33:28.146Z,1035.36
2017-10-17T02:34:28.233Z,1035.34
2017-10-17T02:35:28.141Z,1035.37
2017-10-17T02:36:28.121Z,1035.4
2017-10-17T02:37:28.121Z,1035.4
2017-10-17T02:38:28.109Z,1035.42
2017-10-17T02:39:28.106Z,1035.43
2017-10-17T02:40:28.095Z,1035.4
2017-10-17T02:41:28.095Z,1035.45
2017-10-17T02:42:28.082Z,1035.47
2017-10-17T02:43:28.076Z,1035.52
2017-10-17T02:44:28.069Z,1035.48
2017-10-17T02:45:28.067Z,1035.48
2017-10-17T02:46:28.060Z,1035.48
2017-10-17T02:47:28.051Z,1035.48
2017-10-17T02:48:28.043Z,1035.49
2017-10-17T02:49:28.036Z,1035.51
2017-10-17T02:50:28.035Z,1035.52
2017-10-17T02:51:28.026Z,1035.55
2017-10-17T02:52:28.023Z,1035.59
2017-10-17T02:53:28.011Z,1035.57
2017-10-17T02:54:28.011Z,1035.59
2017-10-17T02:55:27.998Z,1035.59
2017-10-17T02:56:27.995Z,1035.58
2017-10-17T02:57:27.985Z,1035.66
2017-10-17T02:58:27.983Z,1035.64
2017-10-17T02:59:27.972Z,1035.7
2017-10-17T03:00:27.966Z,1035.71
2017-10-17T03:01:27.965Z,1035.7
2017-10-17T03:02:27.961Z,1035.69
2017-10-17T03:03:27.944Z,1035.69
2017-10-17T03:04:27.939Z,1035.71
2017-10-17T03:05:27.931Z,1035.71
2017-10-17T03:06:27.930Z,1035.71
2017-10-17T03:07:27.919Z,1035.69
2017-10-17T03:08:27.917Z,1035.7
2017-10-17T03:09:27.906Z,1035.72
2017-10-17T03:10:27.903Z,1035.73
2017-10-17T03:11:27.891Z,1035.72
2017-10-17T03:12:27.890Z,1035.76
2017-10-17T03:13:27.879Z,1035.79
2017-10-17T03:14:27.874Z,1035.81
2017-10-17T03:15:27.869Z,1035.8
2017-10-17T03:16:27.861Z,1035.78
2017-10-17T03:17:27.850Z,1035.81
2017-10-17T03:18:27.843Z,1035.82
2017-10-17T03:19:27.842Z,1035.81
2017-10-17T03:20:27.836Z,1035.77
2017-10-17T03:21:27.831Z,1035.79
2017-10-17T03:22:27.818Z,1035.78
2017-10-17T03:23:27.813Z,1035.81
2017-10-17T03:24:27.807Z,1035.81
2017-10-17T03:25:27.795Z,1035.81
2017-10-17T03:26:27.794Z,1035.82
2017-10-17T03:27:27.783Z,1035.81
2017-10-17T03:28:27.782Z,1035.84
2017-10-17T03:29:27.769Z,1035.87
2017-10-17T03:30:27.767Z,1035.88
2017-10-17T03:31:27.759Z,1035.86
2017-10-17T03:32:27.752Z,1035.9
2017-10-17T03:33:27.739Z,1035.9
2017-10-17T03:34:27.734Z,1035.91
2017-10-17T03:35:27.734Z,1035.86
2017-10-17T03:36:27.724Z,1035.89
2017-10-17T03:37:27.716Z,1035.85
2017-10-17T03:38:27.706Z,1035.87
2017-10-17T03:39:27.704Z,1035.82
2017-10-17T03:40:27.692Z,1035.78
2017-10-17T03:41:27.690Z,1035.85
2017-10-17T03:42:27.679Z,1035.83
2017-10-17T03:43:27.675Z,1035.78
2017-10-17T03:44:27.662Z,1035.82
2017-10-17T03:45:27.662Z,1035.8
2017-10-17T03:46:27.649Z,1035.81
2017-10-17T03:47:27.642Z,1035.81
2017-10-17T03:48:27.635Z,1035.8
2017-10-17T03:49:27.633Z,1035.85
2017-10-17T03:50:27.620Z,1035.93
2017-10-17T03:51:27.618Z,1035.91
2017-10-17T03:52:27.861Z,1035.92
2017-10-17T03:53:27.603Z,1035.9
2017-10-17T03:54:27.593Z,1035.9
2017-10-17T03:55:27.590Z,1035.93
2017-10-17T03:56:27.579Z,1035.85
2017-10-17T03:57:27.576Z,1035.81
2017-10-17T03:58:27.564Z,1035.83
2017-10-17T03:59:27.561Z,1035.87
2017-10-17T04:00:27.549Z,1035.8
2017-10-17T04:01:27.547Z,1035.78
2017-10-17T04:02:27.535Z,1035.8
2017-10-17T04:03:27.539Z,1035.8
2017-10-17T04:04:27.526Z,1035.81
2017-10-17T04:05:27.514Z,1035.79
2017-10-17T04:06:27.508Z,1035.8
2017-10-17T04:07:27.506Z,1035.8
2017-10-17T04:08:27.501Z,1035.83
2017-10-17T04:09:27.490Z,1035.82
2017-10-17T04:10:27.478Z,1035.83
2017-10-17T04:11:27.474Z,1035.83
2017-10-17T04:12:27.463Z,1035.85
2017-10-17T04:13:27.460Z,1035.89
2017-10-17T04:14:27.449Z,1035.88
2017-10-17T04:15:27.448Z,1035.84
2017-10-17T04:16:27.442Z,1035.89
2017-10-17T04:17:27.429Z,1035.81
2017-10-17T04:18:27.425Z,1035.85
2017-10-17T04:19:27.418Z,1035.86
2017-10-17T04:20:27.410Z,1035.83
2017-10-17T04:21:27.398Z,1035.8
2017-10-17T04:22:27.394Z,1035.86
2017-10-17T04:23:27.392Z,1035.87
2017-10-17T04:24:27.383Z,1035.85
2017-10-17T04:25:27.377Z,1035.85
2017-10-17T04:26:27.364Z,1035.87
2017-10-17T04:27:27.363Z,1035.86
2017-10-17T04:28:27.350Z,1035.84
2017-10-17T04:29:27.349Z,1035.83
2017-10-17T04:30:27.336Z,1035.83
2017-10-17T04:31:27.332Z,1035.86
2017-10-17T04:32:27.321Z,1035.87
2017-10-17T04:33:27.319Z,1035.86
2017-10-17T04:34:27.308Z,1035.89
2017-10-17T04:35:27.300Z,1035.86
2017-10-17T04:36:27.296Z,1035.89
2017-10-17T04:37:27.290Z,1035.87
2017-10-17T04:38:27.283Z,1035.85
2017-10-17T04:39:27.271Z,1035.87
2017-10-17T04:40:27.263Z,1035.9
2017-10-17T04:41:27.259Z,1035.91
2017-10-17T04:42:27.249Z,1035.93
2017-10-17T04:43:27.247Z,1035.94
2017-10-17T04:44:27.241Z,1035.95
2017-10-17T04:45:27.233Z,1035.94
2017-10-17T04:46:27.219Z,1035.97
2017-10-17T04:47:27.216Z,1035.97
2017-10-17T04:48:27.204Z,1035.95
2017-10-17T04:49:27.202Z,1035.96
2017-10-17T04:50:27.191Z,1035.93
2017-10-17T04:51:27.183Z,1035.96
2017-10-17T04:52:27.177Z,1035.98
2017-10-17T04:53:27.174Z,1035.97
2017-10-17T04:54:27.167Z,1036.02
2017-10-17T04:55:27.155Z,1036
2017-10-17T04:56:27.147Z,1035.99
2017-10-17T04:57:27.140Z,1036.01
2017-10-17T04:58:27.136Z,1036.03
2017-10-17T04:59:27.124Z,1036
2017-10-17T05:00:27.121Z,1036
2017-10-17T05:01:27.109Z,1036.02
2017-10-17T05:02:27.108Z,1036.07
2017-10-17T05:03:27.095Z,1036.02
2017-10-17T05:04:27.092Z,1036.09
2017-10-17T05:05:27.080Z,1036.09
2017-10-17T05:06:27.076Z,1036.09
2017-10-17T05:07:27.065Z,1036.12
2017-10-17T05:08:27.057Z,1036.15
2017-10-17T05:09:27.054Z,1036.13
2017-10-17T05:10:27.048Z,1036.13
2017-10-17T05:11:27.034Z,1036.11
2017-10-17T05:12:27.028Z,1036.1
2017-10-17T05:13:27.022Z,1036.12
2017-10-17T05:14:27.018Z,1036.09
2017-10-17T05:15:27.005Z,1036.11
2017-10-17T05:16:27.002Z,1036.11
2017-10-17T05:17:26.991Z,1036.11
2017-10-17T05:18:26.989Z,1036.1
2017-10-17T05:19:26.976Z,1036.13
2017-10-17T05:20:26.972Z,1036.09
2017-10-17T05:21:26.959Z,1036.07
2017-10-17T05:22:26.958Z,1036.08
2017-10-17T05:23:26.949Z,1036.09
2017-10-17T05:24:26.942Z,1036.08
2017-10-17T05:25:26.930Z,1036.07
2017-10-17T05:26:26.920Z,1036.05
2017-10-17T05:27:26.918Z,1036.01
2017-10-17T05:28:26.910Z,1036.04
2017-10-17T05:29:26.903Z,1035.99
2017-10-17T05:30:26.897Z,1036.05
2017-10-17T05:31:26.888Z,1036.08
2017-10-17T05:32:26.881Z,1036.12
2017-10-17T05:33:26.868Z,1036.09
2017-10-17T05:34:26.864Z,1036.08
2017-10-17T05:35:26.852Z,1036.16
2017-10-17T05:36:26.849Z,1036.13
2017-10-17T05:37:26.836Z,1036.13
2017-10-17T05:38:26.835Z,1036.15
2017-10-17T05:39:26.834Z,1036.12
2017-10-17T05:40:26.821Z,1036.08
2017-10-17T05:41:26.808Z,1036.06
2017-10-17T05:42:26.798Z,1036.1
2017-10-17T05:43:26.795Z,1036.1
2017-10-17T05:44:26.788Z,1036.11
2017-10-17T05:45:26.777Z,1036.1
2017-10-17T05:46:26.773Z,1036.1
2017-10-17T05:47:26.761Z,1036.07
2017-10-17T05:48:26.757Z,1036.11
2017-10-17T05:49:26.751Z,1036.1
2017-10-17T05:50:26.744Z,1036.07
2017-10-17T05:51:26.732Z,1036.07
2017-10-17T05:52:26.727Z,1036.1
2017-10-17T05:53:26.714Z,1036.08
2017-10-17T05:54:26.710Z,1036.07
2017-10-17T05:55:26.703Z,1036.04
2017-10-17T05:56:26.696Z,1036.03
2017-10-17T05:57:26.684Z,1035.98
2017-10-17T05:58:26.685Z,1035.96
2017-10-17T05:59:26.669Z,1035.97
2017-10-17T06:00:26.662Z,1035.97
2017-10-17T06:01:26.656Z,1035.93
2017-10-17T06:02:26.651Z,1035.92
2017-10-17T06:03:26.640Z,1035.93
2017-10-17T06:04:26.636Z,1035.93
2017-10-17T06:05:26.625Z,1035.88
2017-10-17T06:06:26.622Z,1035.85
2017-10-17T06:07:26.610Z,1035.84
2017-10-17T06:08:26.610Z,1035.82
2017-10-17T06:09:26.595Z,1035.76
2017-10-17T06:10:26.590Z,1035.72
2017-10-17T06:11:26.584Z,1035.69
2017-10-17T06:12:26.576Z,1035.62
2017-10-17T06:13:26.564Z,1035.62
2017-10-17T06:14:26.556Z,1035.58
2017-10-17T06:15:26.553Z,1035.47
2017-10-17T06:16:26.547Z,1035.4
2017-10-17T06:17:26.538Z,1035.35
2017-10-17T06:18:26.527Z,1035.3
2017-10-17T06:19:26.527Z,1035.24
2017-10-17T06:20:26.516Z,1035.16
2017-10-17T06:21:26.511Z,1035.1
2017-10-17T06:22:26.499Z,1035
2017-10-17T06:23:26.497Z,1034.93
2017-10-17T06:24:26.488Z,1034.84
2017-10-17T06:25:26.476Z,1034.74
2017-10-17T06:26:26.476Z,1034.61
2017-10-17T06:27:26.470Z,1034.54
2017-10-17T06:28:26.763Z,1034.45
2017-10-17T06:29:26.451Z,1034.44
2017-10-17T06:30:26.444Z,1034.38
2017-10-17T06:31:26.442Z,1034.27
2017-10-17T06:32:26.435Z,1034.2
2017-10-17T06:33:26.430Z,1034.1
2017-10-17T06:34:26.419Z,1034.03
2017-10-17T06:35:26.417Z,1033.92
2017-10-17T06:36:26.405Z,1033.79
2017-10-17T06:37:26.405Z,1033.7
2017-10-17T06:38:26.396Z,1033.6
2017-10-17T06:39:26.394Z,1033.47
2017-10-17T06:40:26.384Z,1033.36
2017-10-17T06:41:26.383Z,1033.31
2017-10-17T06:42:26.377Z,1033.19
2017-10-17T06:43:26.364Z,1033.08
2017-10-17T06:44:26.359Z,1032.98
2017-10-17T06:45:26.359Z,1032.87
2017-10-17T06:46:26.355Z,1032.77
2017-10-17T06:47:26.345Z,1032.65
2017-10-17T06:48:26.342Z,1032.52
2017-10-17T06:49:26.340Z,1032.42
2017-10-17T06:50:26.328Z,1032.3
2017-10-17T06:51:26.330Z,1032.2
2017-10-17T06:52:26.319Z,1032.15
2017-10-17T06:53:26.319Z,1032.1
2017-10-17T06:54:26.310Z,1032.03
2017-10-17T06:55:26.315Z,1031.91
2017-10-17T06:56:26.303Z,1031.9
2017-10-17T06:57:26.303Z,1031.84
2017-10-17T06:58:26.293Z,1031.85
2017-10-17T06:59:26.289Z,1031.77
2017-10-17T07:00:26.286Z,1031.7
2017-10-17T07:01:26.286Z,1031.71
2017-10-17T07:02:26.281Z,1031.71
2017-10-17T07:03:26.274Z,1031.69
2017-10-17T07:04:26.273Z,1031.66
2017-10-17T07:05:26.266Z,1031.64
2017-10-17T07:06:26.268Z,1031.67
2017-10-17T07:07:26.260Z,1031.63
2017-10-17T07:08:26.263Z,1031.61
2017-10-17T07:09:26.254Z,1031.58
2017-10-17T07:10:26.255Z,1031.52
2017-10-17T07:11:26.245Z,1031.47
2017-10-17T07:12:26.247Z,1031.45
2017-10-17T07:13:26.248Z,1031.37
2017-10-17T07:14:26.242Z,1031.33
2017-10-17T07:15:26.236Z,1031.28
2017-10-17T07:16:26.230Z,1031.23
2017-10-17T07:17:26.232Z,1031.19
2017-10-17T07:18:26.230Z,1031.17
2017-10-17T07:19:26.222Z,1031.12
2017-10-17T07:20:26.218Z,1031.08
2017-10-17T07:21:26.216Z,1031.08
2017-10-17T07:22:26.225Z,1030.97
2017-10-17T07:23:26.211Z,1030.97
2017-10-17T07:24:26.214Z,1030.96
2017-10-17T07:25:26.206Z,1030.96
2017-10-17T07:26:26.207Z,1031.11
2017-10-17T07:27:26.200Z,1031.25
2017-10-17T07:28:26.203Z,1031.36
2017-10-17T07:29:26.198Z,1031.51
2017-10-17T07:30:26.198Z,1031.64
2017-10-17T07:31:26.199Z,1031.75
2017-10-17T07:32:26.196Z,1031.84
2017-10-17T07:33:26.188Z,1031.91
2017-10-17T07:34:26.183Z,1032.03
2017-10-17T07:35:26.187Z,1032.09
2017-10-17T07:36:26.182Z,1032.24
2017-10-17T07:37:26.181Z,1032.32
2017-10-17T07:38:26.175Z,1032.37
2017-10-17T07:39:26.178Z,1032.44
2017-10-17T07:40:26.174Z,1032.47
2017-10-17T07:41:26.166Z,1032.49
2017-10-17T07:42:26.167Z,1032.62
2017-10-17T07:43:26.160Z,1032.67
2017-10-17T07:44:26.162Z,1032.73
2017-10-17T07:45:26.154Z,1032.78
2017-10-17T07:46:26.159Z,1032.81
2017-10-17T07:47:26.154Z,1032.78
2017-10-17T07:48:26.151Z,1032.81
2017-10-17T07:49:26.143Z,1032.87
2017-10-17T07:50:26.138Z,1032.87
2017-10-17T07:51:26.143Z,1032.88
2017-10-17T07:52:26.144Z,1032.94
2017-10-17T07:53:26.134Z,1032.96
2017-10-17T07:54:26.129Z,1032.99
2017-10-17T07:55:26.127Z,1033.02
2017-10-17T07:56:26.118Z,1033.09
2017-10-17T07:57:26.120Z,1033.07
2017-10-17T07:58:26.126Z,1033.12
2017-10-17T07:59:26.115Z,1033.07
2017-10-17T08:00:26.128Z,1033.09
2017-10-17T08:01:26.108Z,1033.09
2017-10-17T08:02:26.100Z,1033.06
2017-10-17T08:03:26.096Z,1033.07
2017-10-17T08:04:26.093Z,1033.07
2017-10-17T08:05:26.094Z,1033.08
2017-10-17T08:06:26.087Z,1033.04
2017-10-17T08:07:26.088Z,1033.05
2017-10-17T08:08:26.084Z,1033.09
2017-10-17T08:09:26.082Z,1033.13
2017-10-17T08:10:26.083Z,1033.08
2017-10-17T08:11:26.073Z,1033.08
2017-10-17T08:12:26.064Z,1033.12
2017-10-17T08:13:26.065Z,1033.18
2017-10-17T08:14:26.058Z,1033.19
2017-10-17T08:15:26.060Z,1033.23
2017-10-17T08:16:26.052Z,1033.2
2017-10-17T08:17:26.053Z,1033.22
2017-10-17T08:18:26.043Z,1033.2
2017-10-17T08:19:26.040Z,1033.17
2017-10-17T08:20:26.038Z,1033.14
2017-10-17T08:21:26.037Z,1033.13
2017-10-17T08:22:26.033Z,1033.14
2017-10-17T08:23:26.029Z,1033.16
2017-10-17T08:24:26.023Z,1033.23
2017-10-17T08:25:26.020Z,1033.18
2017-10-17T08:26:26.022Z,1033.21
2017-10-17T08:27:26.013Z,1033.19
2017-10-17T08:28:26.015Z,1033.26
2017-10-17T08:29:26.006Z,1033.28
2017-10-17T08:30:26.006Z,1033.23
2017-10-17T08:31:25.997Z,1033.23
2017-10-17T08:32:25.993Z,1033.2
2017-10-17T08:33:26.001Z,1033.17
2017-10-17T08:34:25.988Z,1033.15
2017-10-17T08:35:25.987Z,1033.16
2017-10-17T08:36:25.980Z,1033.16
2017-10-17T08:37:25.982Z,1033.1
2017-10-17T08:38:25.978Z,1033.1
2017-10-17T08:39:25.970Z,1033.14
2017-10-17T08:40:25.966Z,1033.06
2017-10-17T08:41:25.962Z,1033.02
2017-10-17T08:42:25.965Z,1033
2017-10-17T08:43:25.957Z,1033.02
2017-10-17T08:44:25.956Z,1032.97
2017-10-17T08:45:25.949Z,1032.98
2017-10-17T08:46:25.953Z,1032.93
2017-10-17T08:47:25.943Z,1032.98
2017-10-17T08:48:25.944Z,1033
2017-10-17T08:49:25.938Z,1032.99
2017-10-17T08:50:25.937Z,1032.99
2017-10-17T08:51:25.935Z,1032.98
2017-10-17T08:52:25.931Z,1032.96
2017-10-17T08:53:25.924Z,1032.95
2017-10-17T08:54:25.919Z,1032.92
2017-10-17T08:55:25.921Z,1032.92
2017-10-17T08:56:25.918Z,1032.9
2017-10-17T08:57:25.911Z,1032.94
2017-10-17T08:58:25.911Z,1032.88
2017-10-17T08:59:25.905Z,1032.87
2017-10-17T09:00:25.905Z,1032.9
2017-10-17T09:01:25.897Z,1032.86
2017-10-17T09:02:25.900Z,1032.82
2017-10-17T09:03:25.916Z,1032.81
2017-10-17T09:04:25.893Z,1032.75
2017-10-17T09:05:25.884Z,1032.74
2017-10-17T09:06:25.901Z,1032.74
2017-10-17T09:07:25.883Z,1032.71
2017-10-17T09:08:25.879Z,1032.69
2017-10-17T09:09:25.872Z,1032.75
2017-10-17T09:10:25.892Z,1032.65
2017-10-17T09:11:25.866Z,1032.65
2017-10-17T09:12:25.863Z,1032.6
2017-10-17T09:13:25.860Z,1032.59
2017-10-17T09:14:25.863Z,1032.57
2017-10-17T09:15:25.856Z,1032.57
2017-10-17T09:16:25.858Z,1032.51
2017-10-17T09:17:25.850Z,1032.51
2017-10-17T09:18:25.851Z,1032.5
2017-10-17T09:19:25.845Z,1032.44
2017-10-17T09:20:25.845Z,1032.42
2017-10-17T09:21:25.838Z,1032.43
2017-10-17T09:22:25.841Z,1032.39
2017-10-17T09:23:25.832Z,1032.44
2017-10-17T09:24:25.829Z,1032.4
2017-10-17T09:25:25.831Z,1032.37
2017-10-17T09:26:25.828Z,1032.42
2017-10-17T09:27:25.821Z,1032.45
2017-10-17T09:28:25.819Z,1032.41
2017-10-17T09:29:25.815Z,1032.41
2017-10-17T09:30:25.818Z,1032.4
2017-10-17T09:31:25.810Z,1032.38
2017-10-17T09:32:25.813Z,1032.41
2017-10-17T09:33:25.805Z,1032.41
2017-10-17T09:34:25.804Z,1032.38
2017-10-17T09:35:25.805Z,1032.36
2017-10-17T09:36:25.803Z,1032.37
2017-10-17T09:37:25.795Z,1032.4
2017-10-17T09:38:25.794Z,1032.37
2017-10-17T09:39:25.793Z,1032.38
2017-10-17T09:40:25.790Z,1032.35
2017-10-17T09:41:25.783Z,1032.35
2017-10-17T09:42:25.782Z,1032.35
2017-10-17T09:43:25.784Z,1032.32
2017-10-17T09:44:25.782Z,1032.35
2017-10-17T09:45:25.778Z,1032.34
2017-10-17T09:46:25.772Z,1032.34
2017-10-17T09:47:25.778Z,1032.28
2017-10-17T09:48:25.770Z,1032.29
2017-10-17T09:49:25.762Z,1032.28
2017-10-17T09:50:25.766Z,1032.23
2017-10-17T09:51:25.759Z,1032.2
2017-10-17T09:52:25.762Z,1032.21
2017-10-17T09:53:25.753Z,1032.19
2017-10-17T09:54:25.755Z,1032.21
2017-10-17T09:55:25.754Z,1032.17
2017-10-17T09:56:25.751Z,1032.18
2017-10-17T09:57:25.765Z,1032.15
2017-10-17T09:58:25.742Z,1032.13
2017-10-17T09:59:25.746Z,1032.17
2017-10-17T10:00:25.742Z,1032.13
2017-10-17T10:01:25.945Z,1032.11
2017-10-17T10:02:25.733Z,1032.13
2017-10-17T10:03:25.737Z,1032.11
2017-10-17T10:04:25.727Z,1032.08
2017-10-17T10:05:25.731Z,1032.07
2017-10-17T10:06:26.172Z,1032
2017-10-17T10:07:25.725Z,1032
2017-10-17T10:08:25.719Z,1032.03
2017-10-17T10:09:25.720Z,1032
2017-10-17T10:10:25.716Z,1032.02
2017-10-17T10:11:25.717Z,1032.02
2017-10-17T10:12:25.713Z,1031.95
2017-10-17T10:13:25.713Z,1031.99
2017-10-17T10:14:25.706Z,1031.99
2017-10-17T10:15:25.707Z,1032
2017-10-17T10:16:25.704Z,1031.98
2017-10-17T10:17:25.704Z,1031.94
2017-10-17T10:18:25.698Z,1031.94
2017-10-17T10:19:25.703Z,1031.91
2017-10-17T10:20:25.696Z,1031.91
2017-10-17T10:21:25.696Z,1031.86
2017-10-17T10:22:25.687Z,1031.82
2017-10-17T10:23:25.689Z,1031.86
2017-10-17T10:24:25.683Z,1031.84
2017-10-17T10:25:25.685Z,1031.81
2017-10-17T10:26:25.679Z,1031.79
2017-10-17T10:27:25.679Z,1031.8
2017-10-17T10:28:25.675Z,1031.75
2017-10-17T10:29:25.676Z,1031.77
2017-10-17T10:30:25.677Z,1031.74
2017-10-17T10:31:25.670Z,1031.71
2017-10-17T10:32:25.667Z,1031.68
2017-10-17T10:33:25.665Z,1031.64
2017-10-17T10:34:25.666Z,1031.67
2017-10-17T10:35:25.661Z,1031.68
2017-10-17T10:36:25.664Z,1031.65
2017-10-17T10:37:25.656Z,1031.66
2017-10-17T10:38:25.661Z,1031.62
2017-10-17T10:39:25.660Z,1031.6
2017-10-17T10:40:25.652Z,1031.63
2017-10-17T10:41:25.655Z,1031.59
2017-10-17T10:42:25.648Z,1031.55
2017-10-17T10:43:25.645Z,1031.55
2017-10-17T10:44:25.643Z,1031.57
2017-10-17T10:45:25.646Z,1031.52
2017-10-17T10:46:25.645Z,1031.51
2017-10-17T10:47:25.639Z,1031.51
2017-10-17T10:48:25.637Z,1031.54
2017-10-17T10:49:25.636Z,1031.52
2017-10-17T10:50:25.637Z,1031.5
2017-10-17T10:51:25.631Z,1031.47
2017-10-17T10:52:25.630Z,1031.45
2017-10-17T10:53:25.632Z,1031.43
2017-10-17T10:54:25.625Z,1031.42
2017-10-17T10:55:25.626Z,1031.42
2017-10-17T10:56:25.620Z,1031.38
2017-10-17T10:57:25.623Z,1031.38
2017-10-17T10:58:25.917Z,1031.37
2017-10-17T10:59:25.616Z,1031.35
2017-10-17T11:00:25.614Z,1031.32
2017-10-17T11:01:25.618Z,1031.32
2017-10-17T11:02:25.614Z,1031.3
2017-10-17T11:03:25.608Z,1031.28
2017-10-17T11:04:25.606Z,1031.25
2017-10-17T11:05:25.609Z,1031.27
2017-10-17T11:06:25.604Z,1031.26
2017-10-17T11:07:25.606Z,1031.25
2017-10-17T11:08:25.600Z,1031.24
2017-10-17T11:09:25.602Z,1031.27
2017-10-17T11:10:25.595Z,1031.22
2017-10-17T11:11:25.598Z,1031.19
2017-10-17T11:12:25.591Z,1031.19
2017-10-17T11:13:25.593Z,1031.18
2017-10-17T11:14:25.589Z,1031.16
2017-10-17T11:15:25.587Z,1031.15
2017-10-17T11:16:25.586Z,1031.14
2017-10-17T11:17:25.587Z,1031.17
2017-10-17T11:18:25.588Z,1031.13
2017-10-17T11:19:25.581Z,1031.13
2017-10-17T11:20:25.577Z,1031.11
2017-10-17T11:21:25.577Z,1031.12
2017-10-17T11:22:25.578Z,1031.11
2017-10-17T11:23:25.579Z,1031.06
2017-10-17T11:24:25.586Z,1031.05
2017-10-17T11:25:25.567Z,1031.05
2017-10-17T11:26:25.572Z,1031.04
2017-10-17T11:27:25.566Z,1031.04
2017-10-17T11:28:25.568Z,1031.02
2017-10-17T11:29:25.568Z,1030.98
2017-10-17T11:30:25.563Z,1030.96
2017-10-17T11:31:25.557Z,1030.95
2017-10-17T11:32:25.569Z,1030.94
2017-10-17T11:33:25.559Z,1030.9
2017-10-17T11:34:25.558Z,1030.94
2017-10-17T11:35:25.552Z,1030.98
2017-10-17T11:36:25.550Z,1030.98
2017-10-17T11:37:25.548Z,1030.93
2017-10-17T11:38:25.551Z,1030.92
2017-10-17T11:39:25.544Z,1030.91
2017-10-17T11:40:25.549Z,1030.85
2017-10-17T11:41:25.540Z,1030.85
2017-10-17T11:42:25.543Z,1030.83
2017-10-17T11:43:25.538Z,1030.83
2017-10-17T11:44:25.539Z,1030.84
2017-10-17T11:45:25.534Z,1030.8
2017-10-17T11:46:25.537Z,1030.78
2017-10-17T11:47:25.538Z,1030.82
2017-10-17T11:48:25.534Z,1030.76
2017-10-17T11:49:25.535Z,1030.76
2017-10-17T11:50:25.527Z,1030.74
2017-10-17T11:51:25.527Z,1030.73
2017-10-17T11:52:25.528Z,1030.72
2017-10-17T11:53:25.524Z,1030.69
2017-10-17T11:54:25.520Z,1030.7
2017-10-17T11:55:25.523Z,1030.71
2017-10-17T11:56:25.521Z,1030.69
2017-10-17T11:57:25.515Z,1030.66
2017-10-17T11:58:25.518Z,1030.67
2017-10-17T11:59:25.712Z,1030.63
2017-10-17T12:00:25.514Z,1030.63
2017-10-17T12:01:25.507Z,1030.62
2017-10-17T12:02:25.511Z,1030.63
2017-10-17T12:03:25.515Z,1030.62
2017-10-17T12:04:25.510Z,1030.59
2017-10-17T12:05:25.531Z,1030.53
2017-10-17T12:06:25.499Z,1030.57
2017-10-17T12:07:25.503Z,1030.57
2017-10-17T12:08:25.501Z,1030.55